Time;durP1;ratioP1;P1;durP2;ratioP2;P2;SDS_P1;SDS_P2;PMS_P1;PMS_P2;Temp;Humidity;BMP_temperature;BMP_pressure;BME280_temperature;BME280_humidity;BME280_pressure;Samples;Min_cycle;Max_cycle;Signal;HPM_P1;HPM_P2
2023/08/03 00:05:03;;;;;;;5.20;1.70;;;;;;;17.48;84.75;97695.48;273016;1269;22468;-85
2023/08/03 00:11:05;;;;;;;5.10;1.40;;;;;;;17.37;85.73;97702.48;273115;1259;23097;-83
2023/08/03 00:17:07;;;;;;;6.00;1.80;;;;;;;17.21;86.25;97701.49;272117;1269;22516;-83
2023/08/03 00:23:09;;;;;;;3.10;1.30;;;;;;;17.07;86.46;97690.97;270725;1269;23420;-83
2023/08/03 00:29:11;;;;;;;6.70;2.00;;;;;;;17.01;87.10;97689.29;272925;1259;22537;-84
2023/08/03 00:35:12;;;;;;;3.10;1.50;;;;;;;17.06;88.31;97695.61;272057;1259;131823;-84
2023/08/03 00:41:14;;;;;;;2.70;1.40;;;;;;;17.10;88.28;97697.75;270795;1269;23709;-85
2023/08/03 00:47:16;;;;;;;2.20;1.50;;;;;;;17.15;88.97;97702.70;270250;1269;26175;-84
2023/08/03 00:53:18;;;;;;;3.90;1.20;;;;;;;17.16;89.69;97703.36;272676;1257;22314;-83
2023/08/03 00:59:20;;;;;;;3.90;1.80;;;;;;;17.00;89.54;97706.86;271771;1269;22287;-84
2023/08/03 01:05:21;;;;;;;1.70;1.20;;;;;;;16.93;90.83;97712.23;271372;1269;22751;-85
2023/08/03 01:11:23;;;;;;;2.60;1.60;;;;;;;16.96;91.43;97727.87;271322;1259;22368;-84
2023/08/03 01:17:25;;;;;;;4.40;1.90;;;;;;;16.98;91.06;97732.23;273011;1269;22586;-83
2023/08/03 01:23:27;;;;;;;2.80;1.50;;;;;;;17.00;91.55;97724.73;272887;1259;22729;-85
2023/08/03 01:29:28;;;;;;;3.60;1.40;;;;;;;17.05;92.52;97721.70;272254;1269;22537;-83
2023/08/03 01:35:30;;;;;;;4.90;1.30;;;;;;;17.02;93.22;97727.42;272551;1269;22347;-84
2023/08/03 01:41:36;;;;;;;2.70;1.60;;;;;;;17.03;93.80;97722.00;272067;1269;22387;-85
2023/08/03 01:47:38;;;;;;;5.20;1.80;;;;;;;17.03;94.22;97701.54;272135;1258;23575;-85
2023/08/03 01:53:40;;;;;;;2.30;1.40;;;;;;;17.00;94.47;97682.69;270898;1269;22625;-85
2023/08/03 01:59:46;;;;;;;3.20;1.60;;;;;;;16.98;95.24;97682.37;272966;1257;23193;-85
2023/08/03 02:05:47;;;;;;;6.90;1.60;;;;;;;16.95;95.37;97675.23;272171;1256;22562;-85
2023/08/03 02:11:50;;;;;;;1.80;1.30;;;;;;;16.96;96.48;97676.63;273006;1269;22380;-84
2023/08/03 02:17:52;;;;;;;4.40;1.50;;;;;;;16.97;96.67;97681.16;271657;1259;22396;-85
2023/08/03 02:23:54;;;;;;;7.20;1.50;;;;;;;16.98;96.95;97689.58;273045;1269;22511;-85
2023/08/03 02:29:55;;;;;;;3.30;1.80;;;;;;;16.99;97.82;97699.17;273229;1260;23665;-85
2023/08/03 02:35:57;;;;;;;5.10;1.90;;;;;;;16.97;98.06;97717.55;273211;1269;23114;-86
2023/08/03 02:41:59;;;;;;;2.90;1.90;;;;;;;16.98;98.49;97731.10;273028;1269;23376;-85
2023/08/03 02:48:02;;;;;;;6.30;1.50;;;;;;;17.00;98.97;97743.76;273029;1269;22282;-83
2023/08/03 02:54:04;;;;;;;5.20;2.30;;;;;;;16.97;99.32;97755.80;273042;1259;22238;-85
2023/08/03 03:00:07;;;;;;;7.50;2.10;;;;;;;16.91;99.53;97762.70;272932;1269;22279;-84
2023/08/03 03:06:09;;;;;;;6.20;2.50;;;;;;;16.92;99.95;97768.89;272881;1260;22399;-84
2023/08/03 03:12:11;;;;;;;8.10;2.30;;;;;;;16.95;100.00;97782.16;273041;1262;22295;-84
2023/08/03 03:18:18;;;;;;;8.80;2.40;;;;;;;17.03;100.00;97790.41;273072;1269;22302;-84
2023/08/03 03:24:19;;;;;;;6.10;2.10;;;;;;;17.07;100.00;97809.48;273237;1269;23650;-84
2023/08/03 03:30:21;;;;;;;10.20;2.70;;;;;;;17.09;100.00;97829.57;272564;1259;22376;-85
2023/08/03 03:36:23;;;;;;;4.90;1.90;;;;;;;17.05;100.00;97837.67;271248;1259;23895;-84
2023/08/03 03:42:25;;;;;;;5.90;1.90;;;;;;;17.06;100.00;97848.70;271767;1269;22571;-82
2023/08/03 03:48:27;;;;;;;5.80;2.90;;;;;;;17.11;100.00;97873.04;271823;1260;22570;-84
2023/08/03 03:54:28;;;;;;;10.50;5.30;;;;;;;17.13;100.00;97891.52;271973;1263;23481;-84
2023/08/03 04:00:39;;;;;;;7.00;3.30;;;;;;;17.17;100.00;97909.33;272296;1261;22232;-84
2023/08/03 04:06:43;;;;;;;11.70;3.40;;;;;;;17.20;100.00;97914.98;272958;1269;23413;-85
2023/08/03 04:12:45;;;;;;;5.70;2.70;;;;;;;17.29;100.00;97911.71;273154;1257;22398;-85
2023/08/03 04:18:49;;;;;;;5.80;3.30;;;;;;;17.37;100.00;97883.69;273176;1269;22640;-84
2023/08/03 04:24:51;;;;;;;6.40;3.20;;;;;;;17.46;100.00;97872.36;273281;1269;22660;-84
2023/08/03 04:30:53;;;;;;;7.30;3.00;;;;;;;17.53;100.00;97888.39;271347;1259;22999;-85
2023/08/03 04:36:55;;;;;;;5.70;2.80;;;;;;;17.65;100.00;97900.39;273235;1259;23282;-83
2023/08/03 04:42:57;;;;;;;6.30;3.10;;;;;;;17.72;100.00;97897.79;273281;1259;22260;-85
2023/08/03 04:48:58;;;;;;;5.70;3.20;;;;;;;17.77;100.00;97906.94;273253;1256;23285;-84
2023/08/03 04:55:01;;;;;;;6.50;3.30;;;;;;;17.94;100.00;97908.15;273250;1260;22848;-84
2023/08/03 05:01:02;;;;;;;4.40;2.50;;;;;;;18.10;100.00;97905.36;272923;1269;22551;-83
2023/08/03 05:07:05;;;;;;;5.40;2.70;;;;;;;18.22;100.00;97899.44;272666;1259;22460;-84
2023/08/03 05:13:07;;;;;;;6.80;3.20;;;;;;;18.29;100.00;97895.85;271701;1269;26267;-85
2023/08/03 05:19:09;;;;;;;5.40;2.60;;;;;;;18.40;100.00;97893.17;271400;1264;22188;-85
2023/08/03 05:25:11;;;;;;;4.30;2.60;;;;;;;18.51;100.00;97897.86;271108;1269;23491;-85
2023/08/03 05:31:12;;;;;;;5.20;2.40;;;;;;;18.54;100.00;97901.91;270555;1254;22646;-84
2023/08/03 05:37:15;;;;;;;2.80;2.30;;;;;;;18.56;100.00;97905.96;271988;1259;23646;-84
2023/08/03 05:43:17;;;;;;;5.50;2.50;;;;;;;18.59;100.00;97902.10;271816;1259;22630;-84
2023/08/03 05:49:18;;;;;;;6.00;2.40;;;;;;;18.66;100.00;97903.37;270867;1260;25351;-84
2023/08/03 05:55:21;;;;;;;4.40;2.40;;;;;;;18.76;100.00;97907.66;270670;1260;22493;-84
2023/08/03 06:01:23;;;;;;;6.00;2.50;;;;;;;18.79;100.00;97908.27;271612;1263;22389;-84
2023/08/03 06:07:25;;;;;;;6.40;2.60;;;;;;;18.87;100.00;97901.77;271720;1260;22782;-84
2023/08/03 06:13:29;;;;;;;3.90;2.10;;;;;;;18.97;100.00;97906.13;272796;1259;23656;-86
2023/08/03 06:19:31;;;;;;;4.50;2.50;;;;;;;19.04;100.00;97901.88;271899;1266;23168;-84
2023/08/03 06:25:33;;;;;;;3.90;2.10;;;;;;;19.13;100.00;97901.28;271497;1269;22380;-85
2023/08/03 06:31:41;;;;;;;4.90;2.60;;;;;;;19.15;100.00;97904.65;272619;1267;22170;-86
2023/08/03 06:37:43;;;;;;;4.80;2.10;;;;;;;19.18;100.00;97909.71;273270;1260;22347;-84
2023/08/03 06:43:45;;;;;;;4.20;2.70;;;;;;;19.23;100.00;97925.66;273086;1263;22358;-84
2023/08/03 06:49:47;;;;;;;5.80;3.00;;;;;;;19.22;100.00;97943.20;273142;1259;22529;-85
2023/08/03 06:55:49;;;;;;;7.30;3.30;;;;;;;19.21;100.00;97950.08;273328;1268;22467;-85
2023/08/03 07:01:51;;;;;;;11.30;3.80;;;;;;;19.25;100.00;97950.30;273249;1260;22441;-85
2023/08/03 07:07:52;;;;;;;16.90;3.70;;;;;;;19.27;100.00;97947.48;273261;1269;22182;-85
2023/08/03 07:13:54;;;;;;;10.70;4.00;;;;;;;19.29;100.00;97952.65;273252;1269;22179;-85
2023/08/03 07:19:56;;;;;;;15.40;5.30;;;;;;;19.35;100.00;97959.55;271789;1269;22780;-84
2023/08/03 07:25:58;;;;;;;21.70;6.10;;;;;;;19.38;100.00;97965.02;272508;1269;22417;-84
2023/08/03 07:32:00;;;;;;;17.00;5.10;;;;;;;19.36;100.00;97982.26;273068;1260;22545;-84
2023/08/03 07:38:02;;;;;;;14.00;4.00;;;;;;;19.29;100.00;98031.52;270650;1269;22557;-82
2023/08/03 07:44:04;;;;;;;8.50;3.70;;;;;;;19.21;100.00;98064.06;271840;1260;22400;-83
2023/08/03 07:50:06;;;;;;;9.00;3.20;;;;;;;19.12;100.00;98085.41;271827;1269;24347;-84
2023/08/03 07:56:18;;;;;;;6.00;3.50;;;;;;;19.05;100.00;98102.90;272315;1269;22518;-83
2023/08/03 08:02:22;;;;;;;5.30;2.50;;;;;;;18.94;100.00;98114.61;271972;1260;22503;-84
2023/08/03 08:08:24;;;;;;;4.10;2.10;;;;;;;18.69;100.00;98105.83;271728;1261;22963;-83
2023/08/03 08:14:25;;;;;;;3.10;1.90;;;;;;;18.45;100.00;98097.27;271280;1259;22372;-83
2023/08/03 08:20:27;;;;;;;3.40;2.20;;;;;;;18.28;100.00;98095.92;271706;1269;25306;-83
2023/08/03 08:26:31;;;;;;;6.30;2.50;;;;;;;18.17;100.00;98090.13;272846;1260;22967;-83
2023/08/03 08:32:35;;;;;;;6.50;3.10;;;;;;;18.11;100.00;98103.14;273397;1269;22184;-82
2023/08/03 08:38:37;;;;;;;3.00;1.90;;;;;;;18.03;100.00;98114.08;272354;1265;22370;-83
2023/08/03 08:44:39;;;;;;;2.70;1.70;;;;;;;17.94;100.00;98133.04;273134;1261;23794;-83
2023/08/03 08:50:41;;;;;;;2.70;1.60;;;;;;;17.93;100.00;98126.29;272038;1260;22433;-82
2023/08/03 08:56:42;;;;;;;2.20;1.30;;;;;;;17.87;100.00;98121.89;273267;1260;23151;-82
2023/08/03 09:02:55;;;;;;;7.00;1.80;;;;;;;17.84;100.00;98126.83;271700;1269;22446;-82
2023/08/03 09:08:58;;;;;;;3.60;1.70;;;;;;;17.81;100.00;98133.77;272667;1260;22392;-82
2023/08/03 09:15:00;;;;;;;7.80;1.90;;;;;;;17.72;100.00;98139.11;273027;1269;22296;-82
2023/08/03 09:21:12;;;;;;;4.20;1.40;;;;;;;17.68;100.00;98112.70;273393;1267;22237;-81
2023/08/03 09:27:17;;;;;;;3.00;1.20;;;;;;;17.62;100.00;98105.43;273287;1269;22418;-82
2023/08/03 09:33:19;;;;;;;4.00;1.80;;;;;;;17.60;100.00;98083.45;273210;1269;22483;-80
2023/08/03 09:39:21;;;;;;;10.30;1.90;;;;;;;17.57;100.00;98092.80;272049;1266;22685;-82
2023/08/03 09:45:23;;;;;;;3.60;1.30;;;;;;;17.55;100.00;98093.08;273093;1260;22446;-80
2023/08/03 09:51:29;;;;;;;2.80;1.30;;;;;;;17.59;100.00;98069.95;272890;1269;22262;-79
2023/08/03 09:57:42;;;;;;;3.70;1.60;;;;;;;17.59;100.00;98064.09;273252;1261;22347;-80
2023/08/03 10:03:46;;;;;;;2.00;1.20;;;;;;;17.61;100.00;98049.67;271412;1270;22232;-80
2023/08/03 10:09:50;;;;;;;6.10;1.20;;;;;;;17.73;100.00;98039.07;272895;1269;22276;-81
2023/08/03 10:15:52;;;;;;;2.50;1.80;;;;;;;17.92;100.00;98038.73;272727;1260;22469;-81
2023/08/03 10:21:54;;;;;;;3.80;1.60;;;;;;;18.08;100.00;98068.27;273285;1269;23448;-81
2023/08/03 10:28:14;;;;;;;2.50;1.80;;;;;;;18.20;100.00;98052.75;272690;1254;22556;-80
2023/08/03 10:34:23;;;;;;;2.50;1.40;;;;;;;18.30;100.00;98044.02;272704;1272;22324;-82
2023/08/03 10:40:25;;;;;;;4.00;1.70;;;;;;;18.34;100.00;98060.95;272868;1258;22574;-81
2023/08/03 10:46:40;;;;;;;3.00;1.30;;;;;;;18.33;100.00;98072.33;272733;1266;22518;-82
2023/08/03 10:52:41;;;;;;;2.20;0.90;;;;;;;18.21;100.00;98084.28;272786;1271;22362;-82
2023/08/03 10:58:47;;;;;;;3.40;1.40;;;;;;;18.12;100.00;98093.05;272776;1260;22479;-82
2023/08/03 11:04:52;;;;;;;2.70;1.70;;;;;;;18.08;100.00;98096.18;272744;1260;22388;-83
2023/08/03 11:10:54;;;;;;;2.70;1.70;;;;;;;18.02;100.00;98093.72;272720;1272;22368;-82
2023/08/03 11:16:58;;;;;;;3.70;1.30;;;;;;;17.96;100.00;98100.48;271589;1271;22421;-83
2023/08/03 11:23:00;;;;;;;2.70;1.40;;;;;;;17.94;100.00;98107.33;272749;1272;22422;-82
2023/08/03 11:29:03;;;;;;;2.30;1.40;;;;;;;17.93;100.00;98107.70;272740;1260;22582;-83
2023/08/03 11:35:07;;;;;;;3.10;2.20;;;;;;;17.88;100.00;98115.52;271729;1272;22528;-83
2023/08/03 11:41:13;;;;;;;7.00;2.00;;;;;;;17.85;100.00;98112.06;272613;1263;22704;-83
2023/08/03 11:47:14;;;;;;;6.10;2.10;;;;;;;17.89;100.00;98127.36;270200;1270;23039;-84
2023/08/03 11:53:27;;;;;;;3.70;1.90;;;;;;;17.90;100.00;98123.13;271268;1260;23103;-83
2023/08/03 11:59:32;;;;;;;4.40;1.70;;;;;;;17.89;100.00;98114.61;271964;1263;22691;-84
2023/08/03 12:05:54;;;;;;;5.70;2.10;;;;;;;17.90;100.00;98124.00;271768;1260;25229;-83
2023/08/03 12:12:03;;;;;;;7.50;2.50;;;;;;;17.89;100.00;98118.04;271338;1272;22348;-84
2023/08/03 12:18:04;;;;;;;13.80;2.60;;;;;;;17.94;100.00;98116.11;271735;1270;22219;-83
2023/08/03 12:24:07;;;;;;;7.90;3.10;;;;;;;18.01;100.00;98128.02;272476;1257;22303;-83
2023/08/03 12:30:08;;;;;;;5.60;2.60;;;;;;;18.08;100.00;98141.60;271604;1267;22431;-83
2023/08/03 12:36:10;;;;;;;7.00;2.30;;;;;;;18.22;100.00;98132.45;272601;1261;224256;-83
2023/08/03 12:42:12;;;;;;;2.10;1.50;;;;;;;18.32;100.00;98133.85;272737;1261;22396;-83
2023/08/03 12:48:13;;;;;;;3.00;1.80;;;;;;;18.44;100.00;98129.27;272797;1272;23246;-84
2023/08/03 12:54:15;;;;;;;2.60;1.40;;;;;;;18.48;100.00;98152.66;272322;1264;22552;-84
2023/08/03 13:00:16;;;;;;;3.50;1.60;;;;;;;18.43;100.00;98145.45;271580;1267;22184;-83
2023/08/03 13:06:19;;;;;;;4.50;2.10;;;;;;;18.48;100.00;98164.37;272795;1272;23253;-84
2023/08/03 13:12:20;;;;;;;8.40;2.50;;;;;;;18.56;100.00;98179.38;272751;1267;22557;-83
2023/08/03 13:18:23;;;;;;;7.10;2.40;;;;;;;18.66;100.00;98179.70;272818;1269;25061;-85
2023/08/03 13:24:24;;;;;;;3.60;2.10;;;;;;;18.68;100.00;98176.30;272805;1272;22423;-84
2023/08/03 13:30:26;;;;;;;4.80;1.80;;;;;;;18.70;100.00;98145.14;272827;1272;22374;-83
2023/08/03 13:36:28;;;;;;;2.60;1.60;;;;;;;18.80;100.00;98150.86;271488;1259;22415;-85
2023/08/03 13:42:30;;;;;;;4.20;1.70;;;;;;;18.84;100.00;98150.16;271503;1270;22455;-86
2023/08/03 13:48:31;;;;;;;2.60;1.80;;;;;;;18.88;100.00;98145.64;272049;1270;22562;-83
2023/08/03 13:54:33;;;;;;;3.80;1.60;;;;;;;18.98;100.00;98139.27;270658;1271;22566;-84
2023/08/03 14:00:36;;;;;;;4.50;2.30;;;;;;;19.06;100.00;98178.55;270551;1267;22544;-85
2023/08/03 14:06:38;;;;;;;3.80;1.90;;;;;;;19.16;100.00;98162.20;272593;1260;22204;-83
2023/08/03 14:12:39;;;;;;;3.10;1.70;;;;;;;19.28;100.00;98176.56;272208;1272;22497;-85
2023/08/03 14:18:41;;;;;;;3.80;1.60;;;;;;;19.26;100.00;98198.52;272858;1270;22386;-85
2023/08/03 14:24:42;;;;;;;2.50;1.60;;;;;;;19.22;100.00;98217.80;272031;1270;22904;-84
2023/08/03 14:30:44;;;;;;;3.40;1.80;;;;;;;19.29;100.00;98178.90;272730;1267;24507;-82
2023/08/03 14:36:46;;;;;;;3.40;1.70;;;;;;;19.42;99.75;98167.16;272869;1258;22372;-82
2023/08/03 14:42:48;;;;;;;5.70;2.00;;;;;;;19.50;99.17;98191.36;270612;1256;22556;-84
2023/08/03 14:48:49;;;;;;;3.30;1.90;;;;;;;19.57;98.48;98200.63;271922;1271;22166;-84
2023/08/03 14:54:51;;;;;;;3.30;1.70;;;;;;;19.68;97.96;98175.27;272384;1263;22345;-84
2023/08/03 15:00:53;;;;;;;3.00;1.80;;;;;;;19.79;97.34;98181.54;271245;1259;22605;-84
2023/08/03 15:06:56;;;;;;;2.50;1.60;;;;;;;19.79;96.44;98200.17;270703;1272;24409;-82
2023/08/03 15:12:57;;;;;;;3.30;1.80;;;;;;;19.77;95.84;98187.30;271899;1260;22481;-83
2023/08/03 15:18:59;;;;;;;2.50;2.00;;;;;;;19.75;95.09;98172.06;273502;1259;22202;-83
2023/08/03 15:25:01;;;;;;;3.40;1.50;;;;;;;19.71;94.80;98199.30;273153;1257;22707;-84
2023/08/03 15:31:02;;;;;;;2.40;1.50;;;;;;;19.63;94.12;98209.73;273299;1268;23295;-84
2023/08/03 15:37:04;;;;;;;3.30;1.90;;;;;;;19.60;93.45;98223.98;273117;1259;23853;-83
2023/08/03 15:43:06;;;;;;;3.10;1.70;;;;;;;19.63;92.48;98194.10;272685;1257;22430;-83
2023/08/03 15:49:07;;;;;;;4.00;2.00;;;;;;;19.73;91.09;98173.91;273230;1263;22389;-83
2023/08/03 15:55:09;;;;;;;4.10;1.70;;;;;;;19.77;89.94;98183.44;273294;1257;22438;-83
2023/08/03 16:01:11;;;;;;;3.40;1.70;;;;;;;19.75;89.33;98193.42;272477;1257;22439;-84
2023/08/03 16:07:13;;;;;;;3.60;1.80;;;;;;;19.74;88.84;98200.14;272088;1253;23711;-86
2023/08/03 16:13:16;;;;;;;2.40;1.50;;;;;;;19.72;88.07;98210.10;271950;1269;23499;-84
2023/08/03 16:19:17;;;;;;;3.60;1.40;;;;;;;19.73;87.48;98219.14;270908;1264;22213;-85
2023/08/03 16:25:19;;;;;;;5.30;1.90;;;;;;;19.69;87.12;98218.23;272368;1256;22190;-85
2023/08/03 16:31:21;;;;;;;2.20;1.60;;;;;;;19.53;87.27;98219.07;271436;1259;24193;-83
2023/08/03 16:37:23;;;;;;;3.10;1.80;;;;;;;19.42;87.65;98211.02;270937;1257;22554;-85
2023/08/03 16:43:24;;;;;;;3.20;1.90;;;;;;;19.37;87.66;98216.28;271016;1268;26720;-84
2023/08/03 16:49:27;;;;;;;3.70;2.00;;;;;;;19.25;87.94;98237.53;271113;1269;22251;-85
2023/08/03 16:55:29;;;;;;;3.90;2.50;;;;;;;19.12;88.39;98227.99;271655;1269;22243;-85
2023/08/03 17:01:32;;;;;;;4.40;2.50;;;;;;;19.07;88.56;98210.56;272756;1264;22413;-84
2023/08/03 17:07:38;;;;;;;3.50;2.10;;;;;;;19.20;87.40;98186.02;272244;1257;22510;-82
2023/08/03 17:13:39;;;;;;;3.30;1.70;;;;;;;19.41;86.34;98164.88;271863;1268;24393;-84
2023/08/03 17:19:41;;;;;;;3.40;1.70;;;;;;;19.40;86.71;98184.45;272407;1256;22406;-84
2023/08/03 17:25:43;;;;;;;2.80;1.90;;;;;;;19.25;86.60;98189.88;273323;1256;22358;-84
2023/08/03 17:31:46;;;;;;;3.70;2.10;;;;;;;19.19;87.05;98190.19;273361;1268;22640;-85
2023/08/03 17:37:48;;;;;;;4.00;1.90;;;;;;;19.08;87.29;98187.41;273274;1256;22976;-84
2023/08/03 17:43:49;;;;;;;4.00;1.80;;;;;;;19.02;87.68;98184.78;272268;1256;22179;-84
2023/08/03 17:49:52;;;;;;;9.20;2.90;;;;;;;18.98;87.88;98183.17;271193;1257;22227;-85
2023/08/03 17:55:53;;;;;;;9.10;3.20;;;;;;;18.91;87.59;98195.79;273074;1257;22346;-84
2023/08/03 18:01:58;;;;;;;6.90;2.80;;;;;;;18.83;87.90;98199.08;272251;1268;23587;-84
2023/08/03 18:08:02;;;;;;;7.20;2.80;;;;;;;18.74;87.97;98210.86;271338;1268;22570;-84
2023/08/03 18:14:04;;;;;;;6.60;2.80;;;;;;;18.71;88.29;98224.66;271571;1256;22565;-84
2023/08/03 18:20:06;;;;;;;10.30;3.00;;;;;;;18.68;89.30;98220.81;271265;1257;23283;-84
2023/08/03 18:26:08;;;;;;;6.30;2.70;;;;;;;18.54;89.23;98216.34;271329;1268;23583;-84
2023/08/03 18:32:10;;;;;;;9.00;2.80;;;;;;;18.40;90.18;98228.77;270695;1268;25552;-84
2023/08/03 18:38:11;;;;;;;6.60;2.70;;;;;;;18.30;91.53;98246.63;271902;1269;23589;-84
2023/08/03 18:44:14;;;;;;;4.20;2.40;;;;;;;18.19;91.72;98262.34;272748;1257;22667;-83
2023/08/03 18:50:16;;;;;;;7.80;2.50;;;;;;;18.04;91.77;98260.20;272850;1269;22184;-84
2023/08/03 18:56:20;;;;;;;4.20;2.50;;;;;;;17.82;92.32;98258.24;272950;1257;23431;-85
2023/08/03 19:02:22;;;;;;;7.20;3.00;;;;;;;17.69;92.76;98267.09;272937;1262;22227;-84
2023/08/03 19:08:23;;;;;;;5.30;2.90;;;;;;;17.56;93.03;98280.73;272876;1259;22350;-82
2023/08/03 19:14:25;;;;;;;5.90;2.70;;;;;;;17.44;93.66;98290.02;273063;1257;22474;-84
2023/08/03 19:20:26;;;;;;;13.60;3.10;;;;;;;17.33;94.17;98303.66;273094;1258;22381;-84
2023/08/03 19:26:28;;;;;;;7.80;3.00;;;;;;;17.17;94.82;98306.20;273023;1259;23502;-82
2023/08/03 19:32:30;;;;;;;5.40;3.00;;;;;;;17.03;94.92;98313.83;273013;1269;22481;-84
2023/08/03 19:38:32;;;;;;;6.10;2.70;;;;;;;16.95;95.89;98321.25;273104;1258;22833;-84
2023/08/03 19:44:34;;;;;;;7.30;3.30;;;;;;;16.84;96.73;98325.69;272997;1256;22326;-85
2023/08/03 19:50:35;;;;;;;10.10;3.20;;;;;;;16.81;97.45;98330.51;273124;1269;23352;-84
2023/08/03 19:56:37;;;;;;;8.50;3.50;;;;;;;16.77;98.01;98332.73;273077;1269;22401;-85
2023/08/03 20:02:40;;;;;;;14.00;5.90;;;;;;;16.65;97.92;98337.60;272865;1268;22520;-83
2023/08/03 20:08:42;;;;;;;12.60;6.90;;;;;;;16.55;98.54;98343.06;272925;1256;23029;-83
2023/08/03 20:14:44;;;;;;;8.60;5.00;;;;;;;16.45;98.62;98345.48;272978;1266;22457;-85
2023/08/03 20:20:46;;;;;;;12.10;8.00;;;;;;;16.29;98.73;98348.89;272816;1259;23100;-84
2023/08/03 20:26:48;;;;;;;12.00;8.10;;;;;;;16.27;99.51;98357.80;273074;1259;22493;-84
2023/08/03 20:32:50;;;;;;;10.40;6.00;;;;;;;16.25;99.76;98365.72;273210;1258;22182;-84
2023/08/03 20:38:52;;;;;;;7.20;4.10;;;;;;;16.22;100.00;98374.86;271911;1269;26875;-84
2023/08/03 20:44:53;;;;;;;9.00;4.20;;;;;;;16.11;100.00;98383.05;272644;1259;22416;-83
2023/08/03 20:50:55;;;;;;;6.90;3.60;;;;;;;16.04;100.00;98383.98;273252;1269;23519;-84
2023/08/03 20:56:57;;;;;;;5.50;3.40;;;;;;;15.95;100.00;98376.05;273169;1269;23547;-84
2023/08/03 21:02:58;;;;;;;7.50;3.00;;;;;;;15.91;100.00;98375.73;273032;1269;22203;-84
2023/08/03 21:09:02;;;;;;;7.20;3.10;;;;;;;15.86;100.00;98387.35;271739;1269;23217;-84
2023/08/03 21:15:04;;;;;;;10.50;3.50;;;;;;;15.89;100.00;98398.33;271694;1268;22641;-83
2023/08/03 21:21:17;;;;;;;10.40;2.70;;;;;;;15.92;100.00;98398.96;271375;1269;22826;-84
2023/08/03 21:27:18;;;;;;;5.70;3.00;;;;;;;15.95;100.00;98400.02;272513;1255;22629;-84
2023/08/03 21:33:21;;;;;;;6.80;2.90;;;;;;;15.90;100.00;98397.65;272238;1269;23874;-84
2023/08/03 21:39:22;;;;;;;8.70;3.20;;;;;;;15.90;100.00;98399.88;272290;1269;22394;-84
2023/08/03 21:45:24;;;;;;;8.10;2.90;;;;;;;15.90;100.00;98405.09;271624;1258;22905;-85
2023/08/03 21:51:28;;;;;;;5.20;3.50;;;;;;;15.90;100.00;98415.41;271776;1269;22532;-84
2023/08/03 21:57:30;;;;;;;10.50;3.20;;;;;;;15.94;100.00;98420.64;270729;1268;22582;-84
2023/08/03 22:03:32;;;;;;;10.70;4.50;;;;;;;15.98;100.00;98418.58;271088;1269;22472;-85
2023/08/03 22:09:34;;;;;;;6.80;3.90;;;;;;;15.99;100.00;98429.37;271222;1253;23891;-84
2023/08/03 22:15:36;;;;;;;9.90;3.30;;;;;;;15.93;100.00;98428.21;271398;1269;22286;-84
2023/08/03 22:21:38;;;;;;;5.60;3.40;;;;;;;15.91;100.00;98428.09;273186;1269;23183;-84
2023/08/03 22:27:39;;;;;;;5.10;3.30;;;;;;;15.91;100.00;98425.27;272587;1269;22391;-84
2023/08/03 22:33:41;;;;;;;5.60;3.60;;;;;;;15.88;100.00;98435.96;270450;1269;23850;-84
2023/08/03 22:39:43;;;;;;;6.60;2.90;;;;;;;15.83;100.00;98427.77;270362;1259;22549;-84
2023/08/03 22:45:45;;;;;;;7.00;3.60;;;;;;;15.72;100.00;98420.33;271886;1269;22535;-85
2023/08/03 22:51:46;;;;;;;7.00;3.40;;;;;;;15.67;100.00;98420.66;271410;1266;22327;-85
2023/08/03 22:57:48;;;;;;;14.00;3.10;;;;;;;15.74;100.00;98414.77;270351;1269;22538;-84
2023/08/03 23:03:50;;;;;;;8.60;3.50;;;;;;;15.84;100.00;98415.16;271192;1269;23365;-84
2023/08/03 23:09:54;;;;;;;7.00;3.30;;;;;;;15.86;100.00;98421.17;270228;1268;22622;-84
2023/08/03 23:15:55;;;;;;;7.80;4.00;;;;;;;15.82;100.00;98419.67;272704;1269;22402;-84
2023/08/03 23:21:57;;;;;;;9.10;3.70;;;;;;;15.76;100.00;98417.18;272465;1269;22472;-84
2023/08/03 23:27:58;;;;;;;7.80;3.60;;;;;;;15.69;100.00;98422.91;271951;1269;23072;-83
2023/08/03 23:34:00;;;;;;;5.10;3.00;;;;;;;15.67;100.00;98416.64;272517;1269;23786;-84
2023/08/03 23:40:02;;;;;;;6.50;2.80;;;;;;;15.71;100.00;98417.84;271477;1269;22643;-84
2023/08/03 23:46:04;;;;;;;13.60;3.90;;;;;;;15.76;100.00;98428.31;273146;1256;22191;-83
2023/08/03 23:52:06;;;;;;;6.60;3.60;;;;;;;15.79;100.00;98422.16;273017;1262;22715;-84
2023/08/03 23:58:07;;;;;;;7.80;2.80;;;;;;;15.81;100.00;98422.61;273217;1269;22401;-84
